KACQ

Waseca Municipal Airport

Waseca, Minnesota, USA
METAR KACQ 221435Z AUTO 16009G15KT 10SM CLR 11/06 A3031 RMK AO2
Observed Flight Rules
Sep-22 @ 14:35 UTC (26 minutes ago) Visual Flight Rules
Wind Visibility Clouds
160° at 9 knots
 Gusting to 15 knots
10 miles
Temperatures Readings
Current 11°C / 52°F
Dewpoint 6°C / 43°F
Humidity 72%
Altimeter 30.31" Hg
Pressure 1026 hPa
Elevation 343
METAR KACQ 221435Z AUTO 16009G15KT 10SM CLR 11/06 A3031 RMK AO2
Observed Flight Rules
Sep-22 @ 14:35 UTC
(26 minutes ago)
VFR
Wind Visibility
160° at 9 knots
 Gusting to 15 knots
10 miles
Clouds
Temperature Dewpoint
11°C / 52°F 6°C / 43°F
Humidity Altimeter Pressure
72% 30.31" Hg 1026 hPa